createdAt,value
2022-11-07T19:10:27.546Z,6.10
2022-11-07T19:12:55.488Z,7.25
2022-11-07T19:15:26.959Z,7.88
2022-11-07T19:17:55.084Z,7.00
2022-11-07T19:20:23.042Z,7.40
2022-11-07T19:22:50.925Z,6.65
2022-11-07T19:25:19.843Z,5.85
2022-11-07T19:27:51.573Z,5.80
2022-11-07T19:30:19.771Z,5.78
2022-11-07T19:32:48.287Z,6.45
2022-11-07T19:35:17.403Z,5.05
2022-11-07T19:37:45.332Z,4.78
2022-11-07T19:40:13.865Z,5.32
2022-11-07T19:42:41.867Z,4.78
2022-11-07T19:45:12.427Z,4.55
2022-11-07T19:47:40.381Z,5.13
2022-11-07T19:50:08.989Z,4.70
2022-11-07T19:52:36.953Z,4.70
2022-11-07T19:55:06.330Z,4.65
2022-11-07T19:57:34.557Z,4.07
2022-11-07T20:00:03.044Z,4.53
2022-11-07T20:02:38.769Z,4.13
2022-11-07T20:05:10.319Z,4.32
2022-11-07T20:07:38.183Z,4.38
2022-11-07T20:10:08.698Z,4.72
2022-11-07T20:12:36.704Z,4.47
2022-11-07T20:15:05.410Z,3.67
2022-11-07T20:17:34.855Z,3.92
2022-11-07T20:20:06.279Z,4.78
2022-11-07T20:22:40.468Z,4.22
2022-11-07T20:25:11.023Z,4.40
2022-11-07T20:27:38.976Z,4.30
2022-11-07T20:30:08.587Z,3.53
2022-11-07T20:32:39.473Z,4.32
2022-11-07T20:35:08.897Z,4.43
2022-11-07T20:37:37.517Z,4.32
2022-11-07T20:40:06.693Z,3.80
2022-11-07T20:42:35.046Z,4.15
2022-11-07T20:45:04.243Z,4.15
2022-11-07T20:47:33.390Z,3.92
2022-11-07T20:50:02.953Z,3.60
2022-11-07T20:52:31.001Z,3.38
2022-11-07T20:54:58.940Z,3.35
2022-11-07T20:57:27.473Z,3.03
2022-11-07T20:59:55.498Z,3.78
2022-11-07T21:02:23.772Z,3.95
2022-11-07T21:05:16.327Z,3.85
2022-11-07T21:07:41.377Z,3.17
2022-11-07T21:10:10.559Z,3.70
2022-11-07T21:12:38.560Z,4.00
2022-11-07T21:15:07.989Z,3.22
2022-11-07T21:17:36.111Z,3.40
2022-11-07T21:20:04.412Z,3.70
2022-11-07T21:22:32.483Z,3.25
2022-11-07T21:25:01.975Z,3.83
2022-11-07T21:27:30.168Z,3.42
2022-11-07T21:29:58.421Z,3.95
2022-11-07T21:32:26.458Z,3.10
2022-11-07T21:34:54.438Z,3.40
2022-11-07T21:37:22.342Z,2.63
2022-11-07T21:39:50.274Z,2.75
2022-11-07T21:42:19.511Z,3.47
2022-11-07T21:44:47.728Z,3.35
2022-11-07T21:47:15.595Z,2.65
2022-11-07T21:49:43.578Z,2.97
2022-11-07T21:52:12.353Z,3.40
2022-11-07T21:54:40.545Z,4.63
2022-11-07T21:57:08.590Z,3.53
2022-11-07T21:59:38.177Z,2.80
2022-11-07T22:02:06.460Z,3.78
2022-11-07T22:04:34.464Z,3.22
2022-11-07T22:07:02.384Z,3.08
2022-11-07T22:09:30.458Z,3.70
2022-11-07T22:11:58.463Z,3.15
2022-11-07T22:14:26.367Z,3.75
2022-11-07T22:16:56.756Z,4.00
2022-11-07T22:19:24.826Z,3.13
2022-11-07T22:21:52.860Z,3.17
2022-11-07T22:24:21.113Z,3.28
2022-11-07T22:26:49.076Z,3.17
2022-11-07T22:29:16.970Z,3.13
2022-11-07T22:31:44.960Z,3.25
2022-11-07T22:34:14.271Z,2.28
2022-11-07T22:36:42.396Z,3.40
2022-11-07T22:39:10.341Z,3.17
2022-11-07T22:41:38.698Z,3.83
2022-11-07T22:44:06.613Z,2.80
2022-11-07T22:46:34.651Z,2.58
2022-11-07T22:49:02.770Z,2.83
2022-11-07T22:51:33.692Z,3.40
2022-11-07T22:54:03.423Z,3.63
2022-11-07T22:56:32.100Z,3.03
2022-11-07T22:59:00.219Z,3.20
2022-11-07T23:01:30.780Z,3.13
2022-11-07T23:03:59.844Z,3.45
2022-11-07T23:06:29.357Z,3.15
2022-11-07T23:09:00.136Z,3.75
2022-11-07T23:11:48.021Z,3.85
2022-11-07T23:14:19.717Z,3.03
2022-11-07T23:16:50.659Z,2.97
2022-11-07T23:19:21.095Z,2.88
2022-11-07T23:21:50.817Z,3.63
2022-11-07T23:24:20.633Z,2.80
2022-11-07T23:26:49.511Z,3.70
2022-11-07T23:29:19.722Z,3.20
2022-11-07T23:31:49.896Z,3.55
2022-11-07T23:34:19.671Z,3.47
2022-11-07T23:36:47.608Z,3.40
2022-11-07T23:39:17.301Z,3.13
2022-11-07T23:41:47.465Z,2.83
2022-11-07T23:44:16.493Z,3.13
2022-11-07T23:47:02.966Z,3.38
2022-11-07T23:49:48.788Z,3.70
2022-11-07T23:52:17.430Z,2.80
2022-11-07T23:55:02.716Z,3.40
2022-11-07T23:57:35.080Z,3.20
